createdAt,value
2019-04-04T00:00:50.873Z,30.96
2019-04-04T00:03:23.101Z,30.67
2019-04-04T00:05:56.522Z,30.76
2019-04-04T00:08:30.765Z,30.83
2019-04-04T00:11:02.312Z,30.67
2019-04-04T00:13:34.361Z,30.84
2019-04-04T00:16:06.242Z,30.83
2019-04-04T00:18:38.180Z,31.04
2019-04-04T00:21:10.073Z,30.93
2019-04-04T00:23:41.933Z,30.91
2019-04-04T00:26:13.828Z,31.04
2019-04-04T00:28:46.614Z,30.90
2019-04-04T00:31:19.618Z,31.05
2019-04-04T00:33:53.862Z,31.07
2019-04-04T00:36:26.237Z,30.89
2019-04-04T00:38:58.087Z,31.23
2019-04-04T00:41:30.013Z,31.16
2019-04-04T00:44:02.009Z,31.56
2019-04-04T00:46:33.826Z,31.49
2019-04-04T00:49:05.826Z,31.37
2019-04-04T00:51:39.059Z,31.52
2019-04-04T00:54:12.077Z,31.75
2019-04-04T00:56:46.840Z,31.43
2019-04-04T00:59:23.023Z,32.02
2019-04-04T01:01:55.050Z,31.88
2019-04-04T01:04:30.821Z,31.86
2019-04-04T01:07:04.684Z,31.79
2019-04-04T01:09:35.664Z,32.00
2019-04-04T01:12:07.535Z,32.35
2019-04-04T01:14:39.617Z,32.41
2019-04-04T01:17:11.465Z,32.57
2019-04-04T01:19:43.501Z,32.59
2019-04-04T01:22:16.676Z,32.57
2019-04-04T01:24:48.662Z,32.67
2019-04-04T01:27:21.143Z,32.55
2019-04-04T01:29:53.134Z,32.57
2019-04-04T01:32:25.122Z,32.95
2019-04-04T01:34:57.099Z,32.56
2019-04-04T01:37:29.096Z,32.66
2019-04-04T01:40:02.099Z,32.54
2019-04-04T01:42:37.898Z,32.57
2019-04-04T01:45:08.836Z,33.16
2019-04-04T01:47:40.608Z,33.16
2019-04-04T01:50:12.925Z,32.97
2019-04-04T01:52:44.919Z,32.60
2019-04-04T01:55:16.886Z,33.04
2019-04-04T01:57:48.667Z,32.96
2019-04-04T02:00:20.772Z,33.02
2019-04-04T02:02:52.714Z,33.40
2019-04-04T02:05:26.728Z,33.16
2019-04-04T02:08:01.023Z,33.36
2019-04-04T02:10:34.571Z,33.32
2019-04-04T02:13:09.505Z,33.73
2019-04-04T02:15:41.066Z,33.95
2019-04-04T02:18:13.042Z,33.81
2019-04-04T02:20:45.198Z,33.57
2019-04-04T02:23:17.126Z,34.12
2019-04-04T02:25:49.236Z,34.16
2019-04-04T02:28:21.119Z,33.71
2019-04-04T02:30:53.149Z,33.78
2019-04-04T02:33:24.997Z,34.10
2019-04-04T02:35:57.014Z,34.22
2019-04-04T02:38:28.835Z,34.39
2019-04-04T02:41:00.803Z,34.17
2019-04-04T02:43:32.370Z,34.62
2019-04-04T02:46:04.240Z,34.45
2019-04-04T02:48:36.500Z,34.61
2019-04-04T02:51:08.286Z,34.96
2019-04-04T02:53:40.285Z,35.40
2019-04-04T02:56:12.339Z,35.03
2019-04-04T02:58:46.490Z,35.23
2019-04-04T03:01:17.169Z,34.76
2019-04-04T03:03:48.995Z,35.13
2019-04-04T03:06:23.853Z,35.23
2019-04-04T03:08:54.360Z,34.96
2019-04-04T03:11:26.037Z,35.02
2019-04-04T03:13:57.867Z,35.03
2019-04-04T03:16:29.355Z,35.20
2019-04-04T03:19:01.233Z,35.45
2019-04-04T03:21:32.951Z,35.80
2019-04-04T03:24:06.389Z,35.08
2019-04-04T03:26:38.259Z,35.70
2019-04-04T03:29:10.576Z,35.89
2019-04-04T03:31:42.434Z,35.19
2019-04-04T03:34:14.183Z,35.31
2019-04-04T03:36:45.846Z,35.20
2019-04-04T03:39:19.607Z,35.29
2019-04-04T03:41:50.947Z,36.14
2019-04-04T03:44:22.803Z,35.24
2019-04-04T03:46:54.313Z,35.65
2019-04-04T03:49:25.935Z,35.96
2019-04-04T03:51:57.500Z,35.18
2019-04-04T03:54:29.052Z,35.39
2019-04-04T03:57:00.918Z,35.53
2019-04-04T03:59:33.211Z,35.32
2019-04-04T04:02:05.113Z,35.65
2019-04-04T04:04:36.711Z,35.51
2019-04-04T04:07:08.226Z,36.09
2019-04-04T04:09:39.800Z,35.93
2019-04-04T04:12:11.573Z,36.20
2019-04-04T04:14:42.956Z,36.16
2019-04-04T04:17:14.888Z,36.10
2019-04-04T04:19:46.492Z,36.10
2019-04-04T04:22:19.351Z,36.40
2019-04-04T04:24:51.319Z,36.32
2019-04-04T04:27:22.882Z,36.15
2019-04-04T04:29:54.442Z,36.39
2019-04-04T04:32:26.233Z,36.78
2019-04-04T04:34:57.893Z,36.42
2019-04-04T04:37:29.223Z,37.21
2019-04-04T04:40:00.980Z,36.79
2019-04-04T04:42:32.483Z,36.55
2019-04-04T04:45:04.386Z,36.45
2019-04-04T04:47:36.086Z,36.60
2019-04-04T04:50:09.517Z,36.57
2019-04-04T04:52:46.473Z,36.31
2019-04-04T04:55:16.768Z,36.90
2019-04-04T04:57:48.263Z,36.30
2019-04-04T05:00:19.833Z,37.15
2019-04-04T05:02:53.169Z,36.54
2019-04-04T05:05:25.119Z,36.35
2019-04-04T05:07:57.216Z,36.82
2019-04-04T05:10:28.889Z,36.46
2019-04-04T05:13:00.607Z,36.61
2019-04-04T05:15:32.373Z,36.78
2019-04-04T05:18:04.943Z,36.48
2019-04-04T05:20:36.708Z,36.09
2019-04-04T05:23:10.997Z,36.09
2019-04-04T05:25:53.342Z,35.98
2019-04-04T05:28:15.479Z,35.38
2019-04-04T05:30:47.837Z,35.75
2019-04-04T05:33:22.600Z,36.17
2019-04-04T05:35:53.054Z,36.10
2019-04-04T05:38:25.578Z,35.96
2019-04-04T05:40:57.600Z,36.21
2019-04-04T05:43:29.586Z,36.30
2019-04-04T05:46:01.760Z,36.04
2019-04-04T05:48:33.661Z,35.83
2019-04-04T05:51:06.403Z,35.48
2019-04-04T05:53:37.928Z,35.80
2019-04-04T05:56:09.915Z,35.86
2019-04-04T05:58:41.492Z,35.05
2019-04-04T06:01:14.850Z,34.88
2019-04-04T06:03:47.779Z,34.86
2019-04-04T06:06:20.930Z,35.17
2019-04-04T06:08:52.348Z,36.35
2019-04-04T06:11:24.045Z,34.47
2019-04-04T06:13:57.028Z,35.18
2019-04-04T06:16:30.106Z,34.55
2019-04-04T06:19:01.955Z,34.10
2019-04-04T06:21:33.833Z,34.68
2019-04-04T06:24:05.466Z,34.46
2019-04-04T06:26:38.226Z,33.93
2019-04-04T06:29:10.325Z,34.31
2019-04-04T06:31:41.990Z,34.13
2019-04-04T06:34:13.685Z,33.33
2019-04-04T06:36:47.004Z,33.75
2019-04-04T06:39:18.845Z,33.03
2019-04-04T06:41:50.370Z,32.13
2019-04-04T06:44:21.864Z,30.37
2019-04-04T06:46:54.223Z,30.19
2019-04-04T06:49:28.891Z,31.52
2019-04-04T06:52:00.567Z,31.10
2019-04-04T06:54:32.303Z,30.66
2019-04-04T06:57:04.881Z,30.01
2019-04-04T06:59:36.981Z,29.01
2019-04-04T07:02:08.423Z,27.79
2019-04-04T07:04:40.043Z,28.18
2019-04-04T07:07:12.749Z,27.67
2019-04-04T07:09:44.766Z,27.41
2019-04-04T07:12:23.549Z,26.23
2019-04-04T07:14:49.851Z,26.30
2019-04-04T07:17:21.457Z,28.22
2019-04-04T07:19:53.203Z,24.58
2019-04-04T07:22:25.551Z,24.89
2019-04-04T07:24:57.259Z,24.96
2019-04-04T07:27:29.187Z,26.79
2019-04-04T07:30:00.774Z,25.75
2019-04-04T07:32:32.315Z,25.75
2019-04-04T07:35:03.894Z,24.62
2019-04-04T07:37:37.472Z,24.81
2019-04-04T07:40:09.740Z,25.05
2019-04-04T07:42:41.241Z,24.47
2019-04-04T07:45:14.350Z,24.07
2019-04-04T07:47:47.491Z,24.46
2019-04-04T07:50:20.513Z,23.62
2019-04-04T07:52:52.351Z,24.57
2019-04-04T07:55:23.894Z,24.76
2019-04-04T07:57:55.562Z,24.42
2019-04-04T08:00:27.458Z,24.37
2019-04-04T08:02:59.328Z,26.81
2019-04-04T08:05:31.399Z,26.78
2019-04-04T08:08:02.930Z,25.51
2019-04-04T08:10:34.628Z,24.63
2019-04-04T08:13:06.380Z,24.36
2019-04-04T08:15:38.045Z,24.68
2019-04-04T08:18:09.982Z,24.21
2019-04-04T08:20:41.524Z,25.80
2019-04-04T08:23:12.955Z,29.16
2019-04-04T08:25:44.688Z,28.58
2019-04-04T08:28:16.166Z,29.58
2019-04-04T08:30:47.594Z,27.32
2019-04-04T08:33:19.538Z,25.53
2019-04-04T08:35:52.103Z,25.53
2019-04-04T08:38:23.920Z,25.05
2019-04-04T08:40:55.565Z,24.24
2019-04-04T08:43:27.341Z,24.01
2019-04-04T08:45:58.870Z,25.85
2019-04-04T08:48:31.295Z,26.27
2019-04-04T08:51:02.957Z,26.53
2019-04-04T08:53:40.167Z,24.54
2019-04-04T08:56:07.941Z,25.24
2019-04-04T08:58:39.596Z,24.78
2019-04-04T09:01:11.229Z,25.09
2019-04-04T09:03:42.852Z,26.16
2019-04-04T09:06:14.279Z,27.33
2019-04-04T09:08:45.835Z,26.17
2019-04-04T09:11:17.516Z,26.06
2019-04-04T09:13:49.094Z,25.59
2019-04-04T09:16:20.626Z,26.14
2019-04-04T09:18:52.274Z,26.02
2019-04-04T09:21:23.727Z,26.49
2019-04-04T09:23:55.498Z,26.33
2019-04-04T09:26:27.018Z,26.56
2019-04-04T09:28:58.869Z,25.89
2019-04-04T09:31:30.336Z,25.99
2019-04-04T09:34:02.008Z,26.71
2019-04-04T09:36:33.605Z,26.12
2019-04-04T09:39:06.797Z,26.16
2019-04-04T09:41:39.690Z,26.08
2019-04-04T09:44:11.529Z,27.00
2019-04-04T09:46:43.029Z,27.46
2019-04-04T09:49:14.687Z,25.78
2019-04-04T09:51:46.303Z,26.57
2019-04-04T09:54:19.446Z,26.72
2019-04-04T09:56:51.342Z,28.33
2019-04-04T09:59:22.871Z,25.98
2019-04-04T10:01:54.812Z,25.98
2019-04-04T10:04:26.408Z,26.18
2019-04-04T10:06:58.119Z,25.27
2019-04-04T10:09:29.674Z,25.40
2019-04-04T10:12:01.519Z,25.37
2019-04-04T10:14:32.944Z,26.48
2019-04-04T10:17:04.431Z,25.00
2019-04-04T10:19:36.142Z,24.97
2019-04-04T10:22:07.956Z,26.41
2019-04-04T10:24:39.620Z,25.02
2019-04-04T10:27:11.300Z,24.54
2019-04-04T10:29:42.765Z,23.97
2019-04-04T10:32:14.395Z,24.26
2019-04-04T10:34:45.958Z,24.85
2019-04-04T10:37:17.627Z,25.26
2019-04-04T10:39:49.268Z,24.57
2019-04-04T10:42:20.695Z,24.71
2019-04-04T10:44:52.478Z,25.05
2019-04-04T10:47:24.279Z,25.08
2019-04-04T10:49:58.451Z,23.79
2019-04-04T10:52:29.387Z,24.01
2019-04-04T10:55:01.612Z,24.90
2019-04-04T10:57:33.446Z,24.11
2019-04-04T11:00:06.836Z,24.25
2019-04-04T11:02:38.710Z,24.33
2019-04-04T11:05:11.318Z,24.59
2019-04-04T11:07:43.038Z,24.29
2019-04-04T11:10:15.283Z,23.96
2019-04-04T11:12:47.250Z,24.13
2019-04-04T11:15:19.344Z,24.48
2019-04-04T11:17:51.054Z,24.18
2019-04-04T11:20:22.788Z,24.50
2019-04-04T11:22:54.558Z,23.88
2019-04-04T11:25:25.978Z,24.78
2019-04-04T11:27:58.071Z,24.01
2019-04-04T11:30:29.717Z,24.71
2019-04-04T11:33:01.695Z,25.15
2019-04-04T11:35:33.561Z,24.79
2019-04-04T11:38:05.012Z,23.72
2019-04-04T11:40:36.868Z,24.38
2019-04-04T11:43:08.846Z,24.13
2019-04-04T11:45:40.601Z,24.18
2019-04-04T11:48:12.140Z,23.57
2019-04-04T11:50:44.107Z,24.27
2019-04-04T11:53:15.932Z,23.51
2019-04-04T11:55:47.785Z,24.17
2019-04-04T11:58:19.491Z,23.96
2019-04-04T12:00:52.464Z,24.46
2019-04-04T12:03:23.906Z,24.26
2019-04-04T12:05:55.770Z,23.67
2019-04-04T12:08:27.473Z,23.49
2019-04-04T12:10:59.191Z,22.28
2019-04-04T12:13:30.990Z,22.56
2019-04-04T12:16:02.812Z,23.01
2019-04-04T12:18:34.412Z,23.01
2019-04-04T12:21:06.251Z,22.68
2019-04-04T12:23:37.963Z,21.69
2019-04-04T12:26:09.705Z,22.05
2019-04-04T12:28:41.181Z,22.77
2019-04-04T12:31:12.990Z,22.62
2019-04-04T12:33:44.532Z,22.19
2019-04-04T12:36:24.431Z,21.79
2019-04-04T12:38:49.365Z,22.15
2019-04-04T12:41:20.800Z,21.99
2019-04-04T12:43:52.521Z,21.67
2019-04-04T12:46:23.801Z,21.60
2019-04-04T12:48:55.645Z,21.80
2019-04-04T12:51:27.512Z,20.81
2019-04-04T12:53:59.316Z,21.26
2019-04-04T12:56:30.882Z,22.19
2019-04-04T12:59:02.691Z,23.03
2019-04-04T13:01:34.400Z,20.37
2019-04-04T13:04:07.978Z,20.57
2019-04-04T13:06:39.485Z,22.06
2019-04-04T13:09:11.448Z,21.76
2019-04-04T13:11:43.284Z,21.85
2019-04-04T13:14:16.223Z,22.13
2019-04-04T13:16:48.025Z,21.78
2019-04-04T13:19:19.657Z,20.78
2019-04-04T13:21:52.180Z,20.86
2019-04-04T13:24:23.652Z,21.87
2019-04-04T13:26:55.499Z,22.02
2019-04-04T13:29:27.429Z,22.10
2019-04-04T13:31:59.346Z,22.17
2019-04-04T13:34:31.381Z,21.65
2019-04-04T13:37:03.044Z,23.07
2019-04-04T13:39:34.645Z,22.36
2019-04-04T13:42:06.313Z,21.68
2019-04-04T13:44:38.069Z,23.12
2019-04-04T13:47:09.645Z,22.78
2019-04-04T13:49:44.000Z,23.04
2019-04-04T13:52:14.799Z,23.00
2019-04-04T13:54:46.700Z,22.74
2019-04-04T13:57:18.222Z,23.97
2019-04-04T13:59:49.711Z,24.86
2019-04-04T14:02:21.565Z,25.97
2019-04-04T14:04:55.277Z,26.36
2019-04-04T14:07:26.564Z,26.22
2019-04-04T14:09:58.199Z,26.06
2019-04-04T14:12:29.826Z,26.29
2019-04-04T14:15:01.506Z,26.80
2019-04-04T14:17:34.496Z,26.99
2019-04-04T14:20:06.795Z,26.92
2019-04-04T14:22:38.575Z,26.99
2019-04-04T14:25:10.791Z,27.22
2019-04-04T14:27:42.112Z,27.51
2019-04-04T14:30:14.326Z,27.46
2019-04-04T14:32:46.313Z,28.03
2019-04-04T14:35:17.756Z,28.00
2019-04-04T14:37:49.284Z,27.77
2019-04-04T14:40:21.048Z,27.86
2019-04-04T14:42:52.816Z,27.74
2019-04-04T14:45:24.631Z,27.86
2019-04-04T14:47:56.370Z,28.18
2019-04-04T14:50:28.467Z,27.88
2019-04-04T14:53:00.096Z,28.04
2019-04-04T14:55:32.819Z,28.02
2019-04-04T14:58:04.588Z,28.26
2019-04-04T15:00:37.192Z,28.38
2019-04-04T15:03:08.956Z,28.31
2019-04-04T15:05:40.566Z,28.52
2019-04-04T15:08:12.126Z,28.62
2019-04-04T15:10:43.991Z,28.98
2019-04-04T15:13:15.675Z,29.18
2019-04-04T15:16:11.755Z,29.00
2019-04-04T15:18:44.031Z,28.91
2019-04-04T15:21:16.041Z,28.84
2019-04-04T15:23:47.554Z,28.93
2019-04-04T15:26:19.281Z,29.08
2019-04-04T15:28:51.255Z,29.28
2019-04-04T15:31:22.945Z,29.31
2019-04-04T15:33:55.085Z,29.43
2019-04-04T15:36:26.518Z,29.43
2019-04-04T15:38:58.225Z,29.70
2019-04-04T15:41:36.891Z,29.62
2019-04-04T15:44:03.554Z,29.17
2019-04-04T15:46:35.241Z,29.51
2019-04-04T15:49:06.814Z,29.58
2019-04-04T15:51:38.146Z,29.87
2019-04-04T15:54:09.670Z,29.97
2019-04-04T15:56:41.142Z,30.07
2019-04-04T15:59:12.942Z,30.15
2019-04-04T16:01:44.826Z,30.19
2019-04-04T16:04:16.606Z,30.54
2019-04-04T16:06:48.433Z,30.36
2019-04-04T16:09:20.194Z,30.52
2019-04-04T16:11:52.080Z,30.70
2019-04-04T16:14:23.961Z,30.82
2019-04-04T16:16:56.933Z,30.94
2019-04-04T16:19:29.746Z,30.90
2019-04-04T16:22:01.576Z,31.20
2019-04-04T16:24:33.365Z,30.93
2019-04-04T16:27:05.314Z,31.60
2019-04-04T16:29:37.156Z,31.48
2019-04-04T16:32:08.919Z,31.61
2019-04-04T16:34:40.402Z,31.59
2019-04-04T16:37:12.101Z,31.59
2019-04-04T16:39:43.730Z,31.60
2019-04-04T16:42:15.445Z,32.01
2019-04-04T16:44:48.052Z,31.81
2019-04-04T16:47:19.923Z,32.08
2019-04-04T16:49:51.307Z,32.39
2019-04-04T16:52:23.393Z,32.39
2019-04-04T16:54:55.160Z,32.37
2019-04-04T16:57:26.809Z,32.10
2019-04-04T16:59:58.532Z,32.25
2019-04-04T17:02:30.002Z,32.61
2019-04-04T17:05:01.679Z,32.31
2019-04-04T17:07:33.487Z,32.43
2019-04-04T17:10:05.952Z,32.64
2019-04-04T17:12:37.550Z,32.62
2019-04-04T17:15:09.338Z,32.66
2019-04-04T17:17:39.928Z,32.91
2019-04-04T17:20:12.185Z,32.88
2019-04-04T17:22:43.973Z,32.54
2019-04-04T17:25:16.136Z,32.37
2019-04-04T17:27:47.863Z,32.60
2019-04-04T17:30:19.912Z,32.85
2019-04-04T17:32:51.929Z,32.62
2019-04-04T17:35:23.462Z,32.67
2019-04-04T17:37:56.583Z,32.88
2019-04-04T17:40:28.251Z,32.93
2019-04-04T17:43:00.032Z,33.01
2019-04-04T17:45:31.493Z,33.16
2019-04-04T17:48:03.851Z,32.90
2019-04-04T17:50:36.214Z,32.99
2019-04-04T17:53:07.997Z,33.38
2019-04-04T17:55:40.148Z,33.29
2019-04-04T17:58:13.837Z,33.47
2019-04-04T18:00:45.534Z,33.34
2019-04-04T18:03:17.513Z,33.47
2019-04-04T18:05:49.224Z,33.40
2019-04-04T18:08:21.354Z,33.70
2019-04-04T18:10:53.017Z,33.86
2019-04-04T18:13:24.731Z,33.78
2019-04-04T18:15:56.654Z,34.01
2019-04-04T18:18:30.166Z,34.03
2019-04-04T18:21:02.153Z,34.24
2019-04-04T18:23:33.591Z,34.46
2019-04-04T18:26:06.479Z,34.52
2019-04-04T18:28:39.550Z,34.51
2019-04-04T18:31:11.531Z,34.51
2019-04-04T18:33:43.471Z,34.62
2019-04-04T18:36:15.351Z,34.59
2019-04-04T18:38:46.821Z,34.44
2019-04-04T18:41:20.004Z,34.61
2019-04-04T18:43:51.866Z,34.77
2019-04-04T18:46:23.116Z,34.82
2019-04-04T18:48:54.660Z,34.84
2019-04-04T18:51:26.294Z,35.02
2019-04-04T18:53:58.227Z,34.92
2019-04-04T18:56:29.703Z,35.13
2019-04-04T18:59:01.249Z,35.36
2019-04-04T19:01:33.090Z,35.13
2019-04-04T19:04:04.676Z,35.34
2019-04-04T19:06:36.273Z,35.39
2019-04-04T19:09:15.002Z,35.61
2019-04-04T19:11:45.006Z,35.78
2019-04-04T19:14:17.295Z,35.71
2019-04-04T19:16:47.899Z,36.14
2019-04-04T19:19:18.077Z,36.31
2019-04-04T19:21:49.718Z,36.32
2019-04-04T19:24:21.473Z,36.41
2019-04-04T19:26:53.245Z,36.39
2019-04-04T19:29:24.852Z,36.43
2019-04-04T19:31:56.543Z,36.52
2019-04-04T19:34:28.347Z,36.74
2019-04-04T19:37:00.096Z,36.98
2019-04-04T19:39:32.108Z,36.86
2019-04-04T19:42:05.295Z,37.28
2019-04-04T19:44:37.086Z,37.03
2019-04-04T19:47:08.880Z,37.33
2019-04-04T19:49:40.451Z,37.43
2019-04-04T19:52:12.112Z,37.54
2019-04-04T19:54:43.947Z,37.44
2019-04-04T19:57:16.850Z,37.42
2019-04-04T19:59:50.434Z,37.59
2019-04-04T20:02:22.151Z,37.53
2019-04-04T20:04:53.692Z,37.63
2019-04-04T20:07:25.221Z,37.66
2019-04-04T20:09:56.735Z,37.70
2019-04-04T20:12:28.419Z,37.85
2019-04-04T20:15:00.218Z,37.75
2019-04-04T20:17:31.717Z,38.08
2019-04-04T20:20:03.315Z,37.90
2019-04-04T20:22:35.451Z,38.08
2019-04-04T20:25:07.206Z,38.21
2019-04-04T20:27:38.780Z,38.25
2019-04-04T20:30:14.117Z,38.26
2019-04-04T20:32:44.873Z,38.03
2019-04-04T20:35:16.642Z,38.10
2019-04-04T20:37:48.445Z,38.36
2019-04-04T20:40:19.869Z,38.43
2019-04-04T20:42:53.136Z,38.38
2019-04-04T20:45:24.899Z,38.33
2019-04-04T20:47:56.661Z,38.17
2019-04-04T20:50:28.300Z,38.46
2019-04-04T20:53:00.011Z,38.38
2019-04-04T20:55:31.716Z,38.49
2019-04-04T20:58:03.406Z,38.34
2019-04-04T21:00:35.126Z,38.39
2019-04-04T21:03:06.792Z,38.45
2019-04-04T21:05:38.602Z,38.62
2019-04-04T21:08:10.459Z,38.63
2019-04-04T21:10:42.418Z,38.53
2019-04-04T21:13:14.372Z,38.78
2019-04-04T21:15:46.342Z,38.49
2019-04-04T21:18:17.943Z,38.79
2019-04-04T21:20:49.747Z,38.71
2019-04-04T21:23:21.599Z,39.04
2019-04-04T21:25:53.276Z,38.83
2019-04-04T21:28:25.136Z,39.01
2019-04-04T21:30:57.017Z,39.41
2019-04-04T21:33:28.757Z,39.57
2019-04-04T21:36:00.191Z,39.56
2019-04-04T21:38:32.271Z,39.63
2019-04-04T21:41:03.776Z,39.94
2019-04-04T21:43:36.479Z,39.89
2019-04-04T21:46:08.077Z,40.08
2019-04-04T21:48:40.062Z,40.31
2019-04-04T21:51:11.805Z,40.46
2019-04-04T21:53:43.563Z,40.60
2019-04-04T21:56:15.067Z,40.67
2019-04-04T21:58:47.749Z,40.89
2019-04-04T22:01:19.461Z,40.92
2019-04-04T22:03:53.137Z,41.08
2019-04-04T22:06:25.162Z,41.17
2019-04-04T22:08:57.016Z,41.25
2019-04-04T22:11:28.716Z,41.57
2019-04-04T22:14:00.512Z,41.69
2019-04-04T22:16:32.407Z,41.70
2019-04-04T22:19:04.402Z,41.92
2019-04-04T22:21:36.181Z,41.92
2019-04-04T22:24:09.119Z,42.06
2019-04-04T22:26:40.917Z,42.19
2019-04-04T22:29:13.235Z,42.43
2019-04-04T22:31:45.168Z,43.04
2019-04-04T22:34:16.781Z,43.27
2019-04-04T22:36:48.644Z,43.76
2019-04-04T22:39:20.194Z,43.91
2019-04-04T22:41:52.315Z,43.65
2019-04-04T22:44:34.059Z,43.86
2019-04-04T22:46:57.624Z,44.85
2019-04-04T22:49:29.399Z,45.29
2019-04-04T22:52:01.754Z,45.50
2019-04-04T22:54:33.288Z,45.60
2019-04-04T22:57:05.076Z,45.51
2019-04-04T22:59:36.696Z,46.10
2019-04-04T23:02:08.256Z,46.05
2019-04-04T23:04:40.042Z,46.14
2019-04-04T23:07:11.863Z,46.01
2019-04-04T23:09:43.866Z,45.77
2019-04-04T23:12:15.545Z,46.22
2019-04-04T23:14:48.624Z,46.27
2019-04-04T23:17:20.356Z,45.95
2019-04-04T23:19:52.342Z,45.59
2019-04-04T23:22:23.971Z,45.93
2019-04-04T23:24:55.673Z,46.23
2019-04-04T23:27:27.482Z,46.45
2019-04-04T23:29:59.203Z,46.50
2019-04-04T23:32:31.289Z,46.21
2019-04-04T23:35:02.915Z,47.05
2019-04-04T23:37:34.682Z,47.24
2019-04-04T23:40:06.849Z,47.83
2019-04-04T23:42:38.785Z,47.36
2019-04-04T23:45:10.649Z,47.20
2019-04-04T23:47:43.585Z,47.63
2019-04-04T23:50:15.431Z,47.80
2019-04-04T23:52:47.175Z,48.31
2019-04-04T23:55:18.980Z,47.97
2019-04-04T23:57:50.637Z,48.32
